Pagrindinis puslapis
METAR-TAF:

METAR-TAF

Oro uostai :

Fairbanks, Aliaska, Jungtinės Amerikos Valstijos

platuma: 64-48-14N, ilguma: 147-52-34W, Aukštis: 132 m

Dabartinis oras

Ataskaita buvo paskelbta 52 minutes, ne 01:53 UTC
Ramus vėjas
Temperatūra -32°C
Drėgmė 82%
Slėgis 1015 hPa
Matomumas: 16.1 km
Mažai debesys ne aukštis 6500 ft
Mažai debesys ne aukštis 17000 ft

METAR: PAFA 260153Z 00000KT 10SM FEW065 FEW170 M32/M34 A2996 RMK AO2 SLP163 T13171339

Laikas: 17:45 (02:45 UTC)

Prognozė

Ataskaita buvo paskelbta 3 valandos ir 15 minutes, ne 23:30 UTC
Prognozė galioja nuo 26 metu 00 UTC su 27 metu 06 UTC
Vėjas 3 kt iš Šiaurės/Šiaurės Rytų
Matomumas: 10 km
Mažai debesys ne aukštis 6000 ft
Išsisklaidę debesys ne aukštis 8000 ft
Išsisklaidę debesys ne aukštis 10000 ft
Nuo 26 metu 2200 UTC
Vėjas 3 kt iš Šiaurės/Šiaurės Rytų
Matomumas: 6.4 km
Su prošvaistėmis ne aukštis 2000 ft
Apsiniaukę ne aukštis 5000 ft
sniegas, rūkana

TAF: PAFA 252330Z 2600/2706 03003KT P6SM FEW060 SCT080 SCT100 FM262200 03003KT 4SM -SN BR BKN020 OVC050

Orai ataskaitas ir orų prognozės (METAR, TAF).

turimą stotys yra geltonos ir raudonos taškus žemėlapyje.

Perkelti pele per norėdami pamatyti stoties vardą.

Tada spustelėkite, norėdami matyti oro stebėjimo ir prognozės.

Norėdami pakeisti žemėlapį: spustelėkite ant žalios mygtukų su juodo kryžiaus žemyn,; žalią mygtuką su brūkšneliu, jei norite nutolinti; arba žalių rodyklių gretimoms žemėlapius.


METAR-TAF: